sensor_id;sensor_type;location;lat;lon;timestamp;temperature;humidity
36352;DHT22;22382;44.768;17.206;2023-12-14T00:01:15;10.00;99.90
36352;DHT22;22382;44.768;17.206;2023-12-14T00:03:43;9.90;99.90
36352;DHT22;22382;44.768;17.206;2023-12-14T00:06:14;9.90;99.90
36352;DHT22;22382;44.768;17.206;2023-12-14T00:08:41;9.90;99.90
36352;DHT22;22382;44.768;17.206;2023-12-14T00:11:10;9.90;99.90
36352;DHT22;22382;44.768;17.206;2023-12-14T00:13:38;9.80;99.90
36352;DHT22;22382;44.768;17.206;2023-12-14T00:16:07;9.80;99.90
36352;DHT22;22382;44.768;17.206;2023-12-14T00:18:35;9.70;99.90
36352;DHT22;22382;44.768;17.206;2023-12-14T00:21:03;9.70;99.90
36352;DHT22;22382;44.768;17.206;2023-12-14T00:23:33;9.70;99.90
36352;DHT22;22382;44.768;17.206;2023-12-14T00:26:00;9.70;99.90
36352;DHT22;22382;44.768;17.206;2023-12-14T00:28:28;9.80;99.90
36352;DHT22;22382;44.768;17.206;2023-12-14T00:30:59;9.70;99.90
36352;DHT22;22382;44.768;17.206;2023-12-14T00:33:27;9.70;99.90
36352;DHT22;22382;44.768;17.206;2023-12-14T00:35:54;9.70;99.90
36352;DHT22;22382;44.768;17.206;2023-12-14T00:38:21;9.70;99.90
36352;DHT22;22382;44.768;17.206;2023-12-14T00:40:48;9.70;99.90
36352;DHT22;22382;44.768;17.206;2023-12-14T00:43:15;9.70;99.90
36352;DHT22;22382;44.768;17.206;2023-12-14T00:45:43;9.70;99.90
36352;DHT22;22382;44.768;17.206;2023-12-14T00:48:10;9.60;99.90
36352;DHT22;22382;44.768;17.206;2023-12-14T00:50:37;9.60;99.90
36352;DHT22;22382;44.768;17.206;2023-12-14T00:53:04;9.70;99.90
36352;DHT22;22382;44.768;17.206;2023-12-14T00:55:32;9.60;99.90
36352;DHT22;22382;44.768;17.206;2023-12-14T00:57:59;9.70;99.90
36352;DHT22;22382;44.768;17.206;2023-12-14T01:00:26;9.70;99.90
36352;DHT22;22382;44.768;17.206;2023-12-14T01:02:53;9.70;99.90
36352;DHT22;22382;44.768;17.206;2023-12-14T01:05:20;9.80;99.90
36352;DHT22;22382;44.768;17.206;2023-12-14T01:07:47;9.80;99.90
36352;DHT22;22382;44.768;17.206;2023-12-14T01:10:15;9.80;99.90
36352;DHT22;22382;44.768;17.206;2023-12-14T01:12:42;9.90;99.90
36352;DHT22;22382;44.768;17.206;2023-12-14T01:15:10;9.90;99.90
36352;DHT22;22382;44.768;17.206;2023-12-14T01:17:37;9.90;99.90
36352;DHT22;22382;44.768;17.206;2023-12-14T01:20:08;9.90;99.90
36352;DHT22;22382;44.768;17.206;2023-12-14T01:22:35;9.90;99.90
36352;DHT22;22382;44.768;17.206;2023-12-14T01:25:03;10.00;99.90
36352;DHT22;22382;44.768;17.206;2023-12-14T01:27:30;10.00;99.90
36352;DHT22;22382;44.768;17.206;2023-12-14T01:29:57;10.00;99.90
36352;DHT22;22382;44.768;17.206;2023-12-14T01:32:24;10.00;99.90
36352;DHT22;22382;44.768;17.206;2023-12-14T01:34:52;10.00;99.90
36352;DHT22;22382;44.768;17.206;2023-12-14T01:37:19;10.00;99.90
36352;DHT22;22382;44.768;17.206;2023-12-14T01:39:46;10.00;99.90
36352;DHT22;22382;44.768;17.206;2023-12-14T01:42:13;10.00;99.90
36352;DHT22;22382;44.768;17.206;2023-12-14T01:44:41;10.00;99.90
36352;DHT22;22382;44.768;17.206;2023-12-14T01:47:08;9.90;99.90
36352;DHT22;22382;44.768;17.206;2023-12-14T01:49:37;9.80;99.90
36352;DHT22;22382;44.768;17.206;2023-12-14T01:52:04;9.80;99.90
36352;DHT22;22382;44.768;17.206;2023-12-14T01:54:31;9.80;99.90
36352;DHT22;22382;44.768;17.206;2023-12-14T01:56:58;9.80;99.90
36352;DHT22;22382;44.768;17.206;2023-12-14T01:59:26;9.80;99.90
36352;DHT22;22382;44.768;17.206;2023-12-14T02:01:54;9.80;99.90
36352;DHT22;22382;44.768;17.206;2023-12-14T02:04:24;9.80;99.90
36352;DHT22;22382;44.768;17.206;2023-12-14T02:06:55;9.80;99.90
36352;DHT22;22382;44.768;17.206;2023-12-14T02:09:22;9.90;99.90
36352;DHT22;22382;44.768;17.206;2023-12-14T02:11:49;9.90;99.90
36352;DHT22;22382;44.768;17.206;2023-12-14T02:14:16;9.90;99.90
36352;DHT22;22382;44.768;17.206;2023-12-14T02:16:44;9.90;99.90
36352;DHT22;22382;44.768;17.206;2023-12-14T02:19:11;9.90;99.90
36352;DHT22;22382;44.768;17.206;2023-12-14T02:21:38;9.80;99.90
36352;DHT22;22382;44.768;17.206;2023-12-14T02:24:05;9.80;99.90
36352;DHT22;22382;44.768;17.206;2023-12-14T02:26:32;9.70;99.90
36352;DHT22;22382;44.768;17.206;2023-12-14T02:29:00;9.70;99.90
36352;DHT22;22382;44.768;17.206;2023-12-14T02:31:27;9.60;99.90
36352;DHT22;22382;44.768;17.206;2023-12-14T02:33:54;9.60;99.90
36352;DHT22;22382;44.768;17.206;2023-12-14T02:36:21;9.60;99.90
36352;DHT22;22382;44.768;17.206;2023-12-14T02:38:48;9.60;99.90
36352;DHT22;22382;44.768;17.206;2023-12-14T02:41:16;9.50;99.90
36352;DHT22;22382;44.768;17.206;2023-12-14T02:43:43;9.50;99.90
36352;DHT22;22382;44.768;17.206;2023-12-14T02:46:10;9.50;99.90
36352;DHT22;22382;44.768;17.206;2023-12-14T02:48:41;9.50;99.90
36352;DHT22;22382;44.768;17.206;2023-12-14T02:51:13;9.50;99.90
36352;DHT22;22382;44.768;17.206;2023-12-14T02:53:41;9.60;99.90
36352;DHT22;22382;44.768;17.206;2023-12-14T02:56:10;9.60;99.90
36352;DHT22;22382;44.768;17.206;2023-12-14T02:58:38;9.60;99.90
36352;DHT22;22382;44.768;17.206;2023-12-14T03:01:06;9.60;99.90
36352;DHT22;22382;44.768;17.206;2023-12-14T03:03:33;9.70;99.90
36352;DHT22;22382;44.768;17.206;2023-12-14T03:06:00;9.70;99.90
36352;DHT22;22382;44.768;17.206;2023-12-14T03:08:27;9.80;99.90
36352;DHT22;22382;44.768;17.206;2023-12-14T03:10:55;9.80;99.90
36352;DHT22;22382;44.768;17.206;2023-12-14T03:13:22;9.70;99.90
36352;DHT22;22382;44.768;17.206;2023-12-14T03:15:49;9.70;99.90
36352;DHT22;22382;44.768;17.206;2023-12-14T03:18:16;9.70;99.90
36352;DHT22;22382;44.768;17.206;2023-12-14T03:20:44;9.70;99.90
36352;DHT22;22382;44.768;17.206;2023-12-14T03:23:11;9.70;99.90
36352;DHT22;22382;44.768;17.206;2023-12-14T03:25:39;9.70;99.90
36352;DHT22;22382;44.768;17.206;2023-12-14T03:28:06;9.80;99.90
36352;DHT22;22382;44.768;17.206;2023-12-14T03:30:33;9.80;99.90
36352;DHT22;22382;44.768;17.206;2023-12-14T03:33:00;9.80;99.90
36352;DHT22;22382;44.768;17.206;2023-12-14T03:35:28;9.80;99.90
36352;DHT22;22382;44.768;17.206;2023-12-14T03:37:55;9.90;99.90
36352;DHT22;22382;44.768;17.206;2023-12-14T03:40:22;9.90;99.90
36352;DHT22;22382;44.768;17.206;2023-12-14T03:42:49;9.80;99.90
36352;DHT22;22382;44.768;17.206;2023-12-14T03:45:16;9.80;99.90
36352;DHT22;22382;44.768;17.206;2023-12-14T03:47:44;9.80;99.90
36352;DHT22;22382;44.768;17.206;2023-12-14T03:50:11;9.80;99.90
36352;DHT22;22382;44.768;17.206;2023-12-14T03:52:39;9.80;99.90
36352;DHT22;22382;44.768;17.206;2023-12-14T03:55:07;9.70;99.90
36352;DHT22;22382;44.768;17.206;2023-12-14T03:57:35;9.70;99.90
36352;DHT22;22382;44.768;17.206;2023-12-14T04:00:03;9.80;99.90
36352;DHT22;22382;44.768;17.206;2023-12-14T04:02:30;9.80;99.90
36352;DHT22;22382;44.768;17.206;2023-12-14T04:04:58;9.80;99.90
36352;DHT22;22382;44.768;17.206;2023-12-14T04:07:25;9.80;99.90
36352;DHT22;22382;44.768;17.206;2023-12-14T04:09:52;9.80;99.90
36352;DHT22;22382;44.768;17.206;2023-12-14T04:12:20;9.80;99.90
36352;DHT22;22382;44.768;17.206;2023-12-14T04:14:47;9.80;99.90
36352;DHT22;22382;44.768;17.206;2023-12-14T04:17:14;9.80;99.90
36352;DHT22;22382;44.768;17.206;2023-12-14T04:19:41;9.80;99.90
36352;DHT22;22382;44.768;17.206;2023-12-14T04:22:09;9.80;99.90
36352;DHT22;22382;44.768;17.206;2023-12-14T04:24:36;9.80;99.90
36352;DHT22;22382;44.768;17.206;2023-12-14T04:27:03;9.80;99.90
36352;DHT22;22382;44.768;17.206;2023-12-14T04:29:30;9.80;99.90
36352;DHT22;22382;44.768;17.206;2023-12-14T04:31:57;9.90;99.90
36352;DHT22;22382;44.768;17.206;2023-12-14T04:34:25;9.90;99.90
36352;DHT22;22382;44.768;17.206;2023-12-14T04:36:52;9.90;99.90
36352;DHT22;22382;44.768;17.206;2023-12-14T04:39:24;9.80;99.90
36352;DHT22;22382;44.768;17.206;2023-12-14T04:41:52;9.90;99.90
36352;DHT22;22382;44.768;17.206;2023-12-14T04:44:20;9.80;99.90
36352;DHT22;22382;44.768;17.206;2023-12-14T04:46:48;9.90;99.90
36352;DHT22;22382;44.768;17.206;2023-12-14T04:49:16;9.90;99.90
36352;DHT22;22382;44.768;17.206;2023-12-14T04:51:43;9.90;99.90
36352;DHT22;22382;44.768;17.206;2023-12-14T04:54:11;9.90;99.90
36352;DHT22;22382;44.768;17.206;2023-12-14T04:56:38;9.90;99.90
36352;DHT22;22382;44.768;17.206;2023-12-14T04:59:06;9.90;99.90
36352;DHT22;22382;44.768;17.206;2023-12-14T05:01:33;9.90;99.90
36352;DHT22;22382;44.768;17.206;2023-12-14T05:04:00;9.90;99.90
36352;DHT22;22382;44.768;17.206;2023-12-14T05:06:28;9.90;99.90
36352;DHT22;22382;44.768;17.206;2023-12-14T05:08:55;10.00;99.90
36352;DHT22;22382;44.768;17.206;2023-12-14T05:11:22;10.00;99.90
36352;DHT22;22382;44.768;17.206;2023-12-14T05:13:49;10.00;99.90
36352;DHT22;22382;44.768;17.206;2023-12-14T05:16:17;10.00;99.90
36352;DHT22;22382;44.768;17.206;2023-12-14T05:18:44;10.00;99.90
36352;DHT22;22382;44.768;17.206;2023-12-14T05:21:17;10.10;99.90
36352;DHT22;22382;44.768;17.206;2023-12-14T05:23:44;10.10;99.90
36352;DHT22;22382;44.768;17.206;2023-12-14T05:26:11;10.20;99.90
36352;DHT22;22382;44.768;17.206;2023-12-14T05:28:39;10.20;99.90
36352;DHT22;22382;44.768;17.206;2023-12-14T05:31:06;10.20;99.90
36352;DHT22;22382;44.768;17.206;2023-12-14T05:33:37;10.30;99.90
36352;DHT22;22382;44.768;17.206;2023-12-14T05:36:06;10.20;99.90
36352;DHT22;22382;44.768;17.206;2023-12-14T05:38:41;10.20;99.90
36352;DHT22;22382;44.768;17.206;2023-12-14T05:41:09;10.10;99.90
36352;DHT22;22382;44.768;17.206;2023-12-14T05:43:37;10.10;99.90
36352;DHT22;22382;44.768;17.206;2023-12-14T05:46:04;10.10;99.90
36352;DHT22;22382;44.768;17.206;2023-12-14T05:48:32;10.10;99.90
36352;DHT22;22382;44.768;17.206;2023-12-14T05:51:00;9.90;99.90
36352;DHT22;22382;44.768;17.206;2023-12-14T05:53:28;10.00;99.90
36352;DHT22;22382;44.768;17.206;2023-12-14T05:55:55;10.00;99.90
36352;DHT22;22382;44.768;17.206;2023-12-14T05:58:23;10.00;99.90
36352;DHT22;22382;44.768;17.206;2023-12-14T06:00:50;10.00;99.90
36352;DHT22;22382;44.768;17.206;2023-12-14T06:03:17;9.90;99.90
36352;DHT22;22382;44.768;17.206;2023-12-14T06:05:44;9.80;99.90
36352;DHT22;22382;44.768;17.206;2023-12-14T06:08:12;9.80;99.90
36352;DHT22;22382;44.768;17.206;2023-12-14T06:10:39;9.90;99.90
36352;DHT22;22382;44.768;17.206;2023-12-14T06:13:06;9.80;99.90
36352;DHT22;22382;44.768;17.206;2023-12-14T06:15:33;9.90;99.90
36352;DHT22;22382;44.768;17.206;2023-12-14T06:18:00;9.90;99.90
36352;DHT22;22382;44.768;17.206;2023-12-14T06:20:28;9.80;99.90
36352;DHT22;22382;44.768;17.206;2023-12-14T06:22:55;9.90;99.90
36352;DHT22;22382;44.768;17.206;2023-12-14T06:25:22;9.90;99.90
36352;DHT22;22382;44.768;17.206;2023-12-14T06:27:49;9.90;99.90
36352;DHT22;22382;44.768;17.206;2023-12-14T06:30:17;9.90;99.90
36352;DHT22;22382;44.768;17.206;2023-12-14T06:32:44;9.90;99.90
36352;DHT22;22382;44.768;17.206;2023-12-14T06:35:11;9.90;99.90
36352;DHT22;22382;44.768;17.206;2023-12-14T06:37:40;9.90;99.90
36352;DHT22;22382;44.768;17.206;2023-12-14T06:40:09;9.90;99.90
36352;DHT22;22382;44.768;17.206;2023-12-14T06:42:37;9.90;99.90
36352;DHT22;22382;44.768;17.206;2023-12-14T06:45:05;10.00;99.90
36352;DHT22;22382;44.768;17.206;2023-12-14T06:47:32;10.00;99.90
36352;DHT22;22382;44.768;17.206;2023-12-14T06:50:00;10.00;99.90
36352;DHT22;22382;44.768;17.206;2023-12-14T06:52:27;10.00;99.90
36352;DHT22;22382;44.768;17.206;2023-12-14T06:54:54;10.00;99.90
36352;DHT22;22382;44.768;17.206;2023-12-14T06:57:21;10.00;99.90
36352;DHT22;22382;44.768;17.206;2023-12-14T06:59:51;10.00;99.90
36352;DHT22;22382;44.768;17.206;2023-12-14T07:02:19;10.00;99.90
36352;DHT22;22382;44.768;17.206;2023-12-14T07:04:46;10.00;99.90
36352;DHT22;22382;44.768;17.206;2023-12-14T07:07:14;10.00;99.90
36352;DHT22;22382;44.768;17.206;2023-12-14T07:09:41;9.90;99.90
36352;DHT22;22382;44.768;17.206;2023-12-14T07:12:09;10.00;99.90
36352;DHT22;22382;44.768;17.206;2023-12-14T07:14:38;10.00;99.90
36352;DHT22;22382;44.768;17.206;2023-12-14T07:17:05;9.90;99.90
36352;DHT22;22382;44.768;17.206;2023-12-14T07:19:33;9.90;99.90
36352;DHT22;22382;44.768;17.206;2023-12-14T07:22:00;9.90;99.90
36352;DHT22;22382;44.768;17.206;2023-12-14T07:24:27;9.80;99.90
36352;DHT22;22382;44.768;17.206;2023-12-14T07:27:00;9.70;99.90
36352;DHT22;22382;44.768;17.206;2023-12-14T07:29:27;9.70;99.90
36352;DHT22;22382;44.768;17.206;2023-12-14T07:31:54;9.70;99.90
36352;DHT22;22382;44.768;17.206;2023-12-14T07:34:21;9.70;99.90
36352;DHT22;22382;44.768;17.206;2023-12-14T07:36:49;9.70;99.90
36352;DHT22;22382;44.768;17.206;2023-12-14T07:39:16;9.70;99.90
36352;DHT22;22382;44.768;17.206;2023-12-14T07:41:43;9.80;99.90
36352;DHT22;22382;44.768;17.206;2023-12-14T07:44:10;9.80;99.90
36352;DHT22;22382;44.768;17.206;2023-12-14T07:46:38;9.80;99.90
36352;DHT22;22382;44.768;17.206;2023-12-14T07:49:08;9.70;99.90
36352;DHT22;22382;44.768;17.206;2023-12-14T07:51:35;9.70;99.90
36352;DHT22;22382;44.768;17.206;2023-12-14T07:54:03;9.70;99.90
36352;DHT22;22382;44.768;17.206;2023-12-14T07:56:31;9.70;99.90
36352;DHT22;22382;44.768;17.206;2023-12-14T07:59:00;9.80;99.90
36352;DHT22;22382;44.768;17.206;2023-12-14T08:01:27;9.80;99.90
36352;DHT22;22382;44.768;17.206;2023-12-14T08:03:54;9.80;99.90
36352;DHT22;22382;44.768;17.206;2023-12-14T08:06:21;9.80;99.90
36352;DHT22;22382;44.768;17.206;2023-12-14T08:08:57;9.90;99.90
36352;DHT22;22382;44.768;17.206;2023-12-14T08:11:25;9.90;99.90
36352;DHT22;22382;44.768;17.206;2023-12-14T08:13:52;9.90;99.90
36352;DHT22;22382;44.768;17.206;2023-12-14T08:16:19;9.80;99.90
36352;DHT22;22382;44.768;17.206;2023-12-14T08:18:46;9.80;99.90
36352;DHT22;22382;44.768;17.206;2023-12-14T08:21:15;9.80;99.90
36352;DHT22;22382;44.768;17.206;2023-12-14T08:23:43;9.80;99.90
36352;DHT22;22382;44.768;17.206;2023-12-14T08:26:12;9.80;99.90
36352;DHT22;22382;44.768;17.206;2023-12-14T08:28:40;9.70;99.90
36352;DHT22;22382;44.768;17.206;2023-12-14T08:31:07;9.80;99.90
36352;DHT22;22382;44.768;17.206;2023-12-14T08:33:36;9.80;99.90
36352;DHT22;22382;44.768;17.206;2023-12-14T08:36:04;9.80;99.90
36352;DHT22;22382;44.768;17.206;2023-12-14T08:38:32;9.70;99.90
36352;DHT22;22382;44.768;17.206;2023-12-14T08:40:59;9.70;99.90
36352;DHT22;22382;44.768;17.206;2023-12-14T08:43:27;9.70;99.90
36352;DHT22;22382;44.768;17.206;2023-12-14T08:45:54;9.70;99.90
36352;DHT22;22382;44.768;17.206;2023-12-14T08:48:22;9.70;99.90
36352;DHT22;22382;44.768;17.206;2023-12-14T08:50:49;9.60;99.90
36352;DHT22;22382;44.768;17.206;2023-12-14T08:53:16;9.60;99.90
36352;DHT22;22382;44.768;17.206;2023-12-14T08:55:43;9.60;99.90
36352;DHT22;22382;44.768;17.206;2023-12-14T08:58:10;9.60;99.90
36352;DHT22;22382;44.768;17.206;2023-12-14T09:00:38;9.50;99.90
36352;DHT22;22382;44.768;17.206;2023-12-14T09:03:07;9.60;99.90
36352;DHT22;22382;44.768;17.206;2023-12-14T09:05:35;9.50;99.90
36352;DHT22;22382;44.768;17.206;2023-12-14T09:08:04;9.50;99.90
36352;DHT22;22382;44.768;17.206;2023-12-14T09:10:31;9.50;99.90
36352;DHT22;22382;44.768;17.206;2023-12-14T09:12:58;9.60;99.90
36352;DHT22;22382;44.768;17.206;2023-12-14T09:15:27;9.60;99.90
36352;DHT22;22382;44.768;17.206;2023-12-14T09:17:54;9.60;99.90
36352;DHT22;22382;44.768;17.206;2023-12-14T09:20:21;9.60;99.90
36352;DHT22;22382;44.768;17.206;2023-12-14T09:22:49;9.70;99.90
36352;DHT22;22382;44.768;17.206;2023-12-14T09:25:16;9.70;99.90
36352;DHT22;22382;44.768;17.206;2023-12-14T09:27:43;9.80;99.90
36352;DHT22;22382;44.768;17.206;2023-12-14T09:30:11;9.80;99.90
36352;DHT22;22382;44.768;17.206;2023-12-14T09:32:39;9.80;99.90
36352;DHT22;22382;44.768;17.206;2023-12-14T09:35:07;9.80;99.90
36352;DHT22;22382;44.768;17.206;2023-12-14T09:37:34;9.90;99.90
36352;DHT22;22382;44.768;17.206;2023-12-14T09:40:03;9.80;99.90
36352;DHT22;22382;44.768;17.206;2023-12-14T09:42:37;9.90;99.90
36352;DHT22;22382;44.768;17.206;2023-12-14T09:45:07;10.00;99.90
36352;DHT22;22382;44.768;17.206;2023-12-14T09:47:37;10.10;99.90
36352;DHT22;22382;44.768;17.206;2023-12-14T09:50:05;10.20;99.90
36352;DHT22;22382;44.768;17.206;2023-12-14T09:52:33;10.30;99.90
36352;DHT22;22382;44.768;17.206;2023-12-14T09:55:02;10.40;99.90
36352;DHT22;22382;44.768;17.206;2023-12-14T09:57:31;10.50;99.90
36352;DHT22;22382;44.768;17.206;2023-12-14T09:59:58;10.60;99.90
36352;DHT22;22382;44.768;17.206;2023-12-14T10:02:27;10.60;99.90
36352;DHT22;22382;44.768;17.206;2023-12-14T10:04:54;10.50;99.90
36352;DHT22;22382;44.768;17.206;2023-12-14T10:07:22;10.50;99.90
36352;DHT22;22382;44.768;17.206;2023-12-14T10:09:50;10.30;99.90
36352;DHT22;22382;44.768;17.206;2023-12-14T10:12:17;10.30;99.90
36352;DHT22;22382;44.768;17.206;2023-12-14T10:14:44;10.40;99.90
36352;DHT22;22382;44.768;17.206;2023-12-14T10:17:19;10.40;99.90
36352;DHT22;22382;44.768;17.206;2023-12-14T10:19:48;10.40;99.90
36352;DHT22;22382;44.768;17.206;2023-12-14T10:22:17;10.40;99.90
36352;DHT22;22382;44.768;17.206;2023-12-14T10:24:46;10.40;99.90
36352;DHT22;22382;44.768;17.206;2023-12-14T10:27:15;10.30;99.90
36352;DHT22;22382;44.768;17.206;2023-12-14T10:29:43;10.20;99.90
36352;DHT22;22382;44.768;17.206;2023-12-14T10:32:13;10.20;99.90
36352;DHT22;22382;44.768;17.206;2023-12-14T10:34:41;10.20;99.90
36352;DHT22;22382;44.768;17.206;2023-12-14T10:37:09;9.90;99.90
36352;DHT22;22382;44.768;17.206;2023-12-14T10:39:37;9.80;99.90
36352;DHT22;22382;44.768;17.206;2023-12-14T10:42:08;9.80;99.90
36352;DHT22;22382;44.768;17.206;2023-12-14T10:44:46;9.90;99.90
36352;DHT22;22382;44.768;17.206;2023-12-14T10:47:35;10.00;99.90
36352;DHT22;22382;44.768;17.206;2023-12-14T10:50:04;10.00;99.90
36352;DHT22;22382;44.768;17.206;2023-12-14T10:52:34;10.10;99.90
36352;DHT22;22382;44.768;17.206;2023-12-14T10:55:09;10.10;99.90
36352;DHT22;22382;44.768;17.206;2023-12-14T10:57:39;10.10;99.90
36352;DHT22;22382;44.768;17.206;2023-12-14T11:00:10;10.10;99.90
36352;DHT22;22382;44.768;17.206;2023-12-14T11:02:41;10.00;99.90
36352;DHT22;22382;44.768;17.206;2023-12-14T11:05:14;10.10;99.90
36352;DHT22;22382;44.768;17.206;2023-12-14T11:07:48;10.20;99.90
36352;DHT22;22382;44.768;17.206;2023-12-14T11:10:21;10.10;99.90
36352;DHT22;22382;44.768;17.206;2023-12-14T11:13:01;10.10;99.90
36352;DHT22;22382;44.768;17.206;2023-12-14T11:15:30;10.20;99.90
36352;DHT22;22382;44.768;17.206;2023-12-14T11:23:15;10.60;99.90
36352;DHT22;22382;44.768;17.206;2023-12-14T11:25:48;10.60;99.90
36352;DHT22;22382;44.768;17.206;2023-12-14T11:28:25;10.60;99.90
36352;DHT22;22382;44.768;17.206;2023-12-14T11:30:54;10.60;99.90
36352;DHT22;22382;44.768;17.206;2023-12-14T11:33:24;10.70;99.90
36352;DHT22;22382;44.768;17.206;2023-12-14T11:35:52;10.90;99.90
36352;DHT22;22382;44.768;17.206;2023-12-14T11:38:20;11.00;99.90
36352;DHT22;22382;44.768;17.206;2023-12-14T11:40:49;11.20;99.90
36352;DHT22;22382;44.768;17.206;2023-12-14T11:43:17;11.30;99.90
36352;DHT22;22382;44.768;17.206;2023-12-14T11:45:48;11.40;99.90
36352;DHT22;22382;44.768;17.206;2023-12-14T11:48:16;11.60;99.90
36352;DHT22;22382;44.768;17.206;2023-12-14T11:50:44;11.60;99.90
36352;DHT22;22382;44.768;17.206;2023-12-14T11:53:12;11.50;99.90
36352;DHT22;22382;44.768;17.206;2023-12-14T11:55:42;11.60;99.90
36352;DHT22;22382;44.768;17.206;2023-12-14T11:58:12;11.70;99.90
36352;DHT22;22382;44.768;17.206;2023-12-14T12:00:40;11.80;99.90
36352;DHT22;22382;44.768;17.206;2023-12-14T12:05:54;11.70;99.90
36352;DHT22;22382;44.768;17.206;2023-12-14T12:08:22;11.70;99.90
36352;DHT22;22382;44.768;17.206;2023-12-14T12:10:49;11.70;99.90
36352;DHT22;22382;44.768;17.206;2023-12-14T12:13:19;11.60;99.90
36352;DHT22;22382;44.768;17.206;2023-12-14T12:15:47;11.70;99.90
36352;DHT22;22382;44.768;17.206;2023-12-14T12:18:16;11.70;99.90
36352;DHT22;22382;44.768;17.206;2023-12-14T12:20:44;11.70;99.90
36352;DHT22;22382;44.768;17.206;2023-12-14T12:23:12;11.70;99.90
36352;DHT22;22382;44.768;17.206;2023-12-14T12:25:41;11.60;99.90
36352;DHT22;22382;44.768;17.206;2023-12-14T12:28:08;11.70;99.90
36352;DHT22;22382;44.768;17.206;2023-12-14T12:30:35;11.70;99.90
36352;DHT22;22382;44.768;17.206;2023-12-14T12:33:06;11.70;99.90
36352;DHT22;22382;44.768;17.206;2023-12-14T12:35:34;11.70;99.90
36352;DHT22;22382;44.768;17.206;2023-12-14T12:38:02;11.70;99.90
36352;DHT22;22382;44.768;17.206;2023-12-14T12:40:30;11.70;99.90
36352;DHT22;22382;44.768;17.206;2023-12-14T12:42:58;11.70;99.90
36352;DHT22;22382;44.768;17.206;2023-12-14T12:45:25;11.60;99.90
36352;DHT22;22382;44.768;17.206;2023-12-14T12:47:55;11.60;99.90
36352;DHT22;22382;44.768;17.206;2023-12-14T12:50:22;11.60;99.90
36352;DHT22;22382;44.768;17.206;2023-12-14T12:52:50;11.60;99.90
36352;DHT22;22382;44.768;17.206;2023-12-14T12:55:18;11.50;99.90
36352;DHT22;22382;44.768;17.206;2023-12-14T12:57:45;11.50;99.90
36352;DHT22;22382;44.768;17.206;2023-12-14T13:00:13;11.50;99.90
36352;DHT22;22382;44.768;17.206;2023-12-14T13:02:40;11.40;99.90
36352;DHT22;22382;44.768;17.206;2023-12-14T13:05:09;11.40;99.90
36352;DHT22;22382;44.768;17.206;2023-12-14T13:07:44;11.30;99.90
36352;DHT22;22382;44.768;17.206;2023-12-14T13:10:12;11.30;99.90
36352;DHT22;22382;44.768;17.206;2023-12-14T13:12:55;11.40;99.90
36352;DHT22;22382;44.768;17.206;2023-12-14T13:15:23;11.30;99.90
36352;DHT22;22382;44.768;17.206;2023-12-14T13:17:53;11.40;99.90
36352;DHT22;22382;44.768;17.206;2023-12-14T13:20:20;11.30;99.90
36352;DHT22;22382;44.768;17.206;2023-12-14T13:22:48;11.30;99.90
36352;DHT22;22382;44.768;17.206;2023-12-14T13:25:16;11.30;99.90
36352;DHT22;22382;44.768;17.206;2023-12-14T13:27:43;11.40;99.90
36352;DHT22;22382;44.768;17.206;2023-12-14T13:30:11;11.40;99.90
36352;DHT22;22382;44.768;17.206;2023-12-14T13:32:43;11.40;99.90
36352;DHT22;22382;44.768;17.206;2023-12-14T13:35:11;11.30;99.90
36352;DHT22;22382;44.768;17.206;2023-12-14T13:37:38;11.20;99.90
36352;DHT22;22382;44.768;17.206;2023-12-14T13:40:07;11.30;99.90
36352;DHT22;22382;44.768;17.206;2023-12-14T13:42:34;11.40;99.90
36352;DHT22;22382;44.768;17.206;2023-12-14T13:45:12;11.50;99.90
36352;DHT22;22382;44.768;17.206;2023-12-14T13:47:40;11.50;99.90
36352;DHT22;22382;44.768;17.206;2023-12-14T13:50:07;11.40;99.90
36352;DHT22;22382;44.768;17.206;2023-12-14T13:52:35;11.30;99.90
36352;DHT22;22382;44.768;17.206;2023-12-14T13:55:03;11.20;99.90
36352;DHT22;22382;44.768;17.206;2023-12-14T13:57:30;11.10;99.90
36352;DHT22;22382;44.768;17.206;2023-12-14T13:59:57;10.90;99.90
36352;DHT22;22382;44.768;17.206;2023-12-14T14:02:25;10.80;99.90
36352;DHT22;22382;44.768;17.206;2023-12-14T14:04:54;10.80;99.90
36352;DHT22;22382;44.768;17.206;2023-12-14T14:07:21;10.80;99.90
36352;DHT22;22382;44.768;17.206;2023-12-14T14:09:49;10.70;99.90
36352;DHT22;22382;44.768;17.206;2023-12-14T14:12:16;10.70;99.90
36352;DHT22;22382;44.768;17.206;2023-12-14T14:14:43;10.70;99.90
36352;DHT22;22382;44.768;17.206;2023-12-14T14:17:11;10.70;99.90
36352;DHT22;22382;44.768;17.206;2023-12-14T14:19:38;10.50;99.90
36352;DHT22;22382;44.768;17.206;2023-12-14T14:22:06;10.50;99.90
36352;DHT22;22382;44.768;17.206;2023-12-14T14:24:33;10.50;99.90
36352;DHT22;22382;44.768;17.206;2023-12-14T14:27:01;10.40;99.90
36352;DHT22;22382;44.768;17.206;2023-12-14T14:29:28;10.40;99.90
36352;DHT22;22382;44.768;17.206;2023-12-14T14:31:56;10.40;99.90
36352;DHT22;22382;44.768;17.206;2023-12-14T14:34:23;10.40;99.90
36352;DHT22;22382;44.768;17.206;2023-12-14T14:36:51;10.40;99.90
36352;DHT22;22382;44.768;17.206;2023-12-14T14:39:19;10.40;99.90
36352;DHT22;22382;44.768;17.206;2023-12-14T14:41:48;10.40;99.90
36352;DHT22;22382;44.768;17.206;2023-12-14T14:44:15;10.40;99.90
36352;DHT22;22382;44.768;17.206;2023-12-14T14:46:42;10.40;99.90
36352;DHT22;22382;44.768;17.206;2023-12-14T14:49:10;10.30;99.90
36352;DHT22;22382;44.768;17.206;2023-12-14T14:51:37;10.20;99.90
36352;DHT22;22382;44.768;17.206;2023-12-14T14:54:04;10.10;99.90
36352;DHT22;22382;44.768;17.206;2023-12-14T14:56:32;10.10;99.90
36352;DHT22;22382;44.768;17.206;2023-12-14T14:58:59;10.10;99.90
36352;DHT22;22382;44.768;17.206;2023-12-14T15:01:27;10.00;99.90
36352;DHT22;22382;44.768;17.206;2023-12-14T15:03:54;10.10;99.90
36352;DHT22;22382;44.768;17.206;2023-12-14T15:06:21;10.10;99.90
36352;DHT22;22382;44.768;17.206;2023-12-14T15:08:50;10.10;99.90
36352;DHT22;22382;44.768;17.206;2023-12-14T15:11:17;10.10;99.90
36352;DHT22;22382;44.768;17.206;2023-12-14T15:13:44;10.00;99.90
36352;DHT22;22382;44.768;17.206;2023-12-14T15:16:11;10.00;99.90
36352;DHT22;22382;44.768;17.206;2023-12-14T15:18:39;10.00;99.90
36352;DHT22;22382;44.768;17.206;2023-12-14T15:21:10;10.00;99.90
36352;DHT22;22382;44.768;17.206;2023-12-14T15:23:42;10.00;99.90
36352;DHT22;22382;44.768;17.206;2023-12-14T15:26:11;10.00;99.90
36352;DHT22;22382;44.768;17.206;2023-12-14T15:28:38;10.00;99.90
36352;DHT22;22382;44.768;17.206;2023-12-14T15:31:06;10.00;99.90
36352;DHT22;22382;44.768;17.206;2023-12-14T15:33:34;10.00;99.90
36352;DHT22;22382;44.768;17.206;2023-12-14T15:36:01;10.00;99.90
36352;DHT22;22382;44.768;17.206;2023-12-14T15:38:29;10.00;99.90